createdAt,value
2023-03-15T00:00:28.803Z,100934.44
2023-03-15T00:02:32.576Z,100937.09
2023-03-15T00:04:37.392Z,100943.22
2023-03-15T00:06:42.457Z,100945.81
2023-03-15T00:08:47.930Z,100947.59
2023-03-15T00:10:51.603Z,100960.63
2023-03-15T00:12:55.097Z,100964.13
2023-03-15T00:14:59.468Z,100964.13
2023-03-15T00:17:03.430Z,100968.56
2023-03-15T00:19:07.070Z,100971.16
2023-03-15T00:21:10.745Z,100970.34
2023-03-15T00:23:16.826Z,100973.88
2023-03-15T00:25:20.289Z,100975.66
2023-03-15T00:27:24.032Z,100968.69
2023-03-15T00:29:27.785Z,100968.69
2023-03-15T00:31:31.389Z,100964.41
2023-03-15T00:33:36.067Z,100965.28
2023-03-15T00:35:41.194Z,100961.88
2023-03-15T00:37:44.682Z,100962.81
2023-03-15T00:39:50.264Z,100963.75
2023-03-15T00:41:57.130Z,100956.88
2023-03-15T00:44:01.362Z,100954.31
2023-03-15T00:46:06.262Z,100956.13
2023-03-15T00:48:10.706Z,100950.97
2023-03-15T00:50:14.432Z,100950.97
2023-03-15T00:52:19.301Z,100957.16
2023-03-15T00:54:24.077Z,100951.94
2023-03-15T00:56:30.979Z,100947.56
2023-03-15T00:58:35.070Z,100955.41
2023-03-15T01:00:38.696Z,100944.06
2023-03-15T01:02:46.146Z,100944.06
2023-03-15T01:04:50.027Z,100948.34
2023-03-15T01:06:53.639Z,100948.28
2023-03-15T01:08:58.195Z,100943.06
2023-03-15T01:11:04.913Z,100942.19
2023-03-15T01:13:11.718Z,100946.56
2023-03-15T01:15:16.920Z,100954.41
2023-03-15T01:17:20.437Z,100966.66
2023-03-15T01:19:24.192Z,100958.00
2023-03-15T01:21:30.000Z,100959.78
2023-03-15T01:23:33.763Z,100962.44
2023-03-15T01:25:37.357Z,100961.69
2023-03-15T01:27:41.181Z,100956.50
2023-03-15T01:29:46.525Z,100964.34
2023-03-15T01:31:51.393Z,100964.44
2023-03-15T01:33:55.478Z,100954.97
2023-03-15T01:36:01.724Z,100953.25
2023-03-15T01:38:06.359Z,100955.06
2023-03-15T01:40:14.360Z,100950.72
2023-03-15T01:42:20.525Z,100946.38
2023-03-15T01:44:24.409Z,100945.66
2023-03-15T01:46:34.881Z,100940.66
2023-03-15T01:48:57.008Z,100937.47
2023-03-15T01:51:11.452Z,100947.13
2023-03-15T01:53:15.048Z,100946.41
2023-03-15T01:55:21.428Z,100949.91
2023-03-15T01:57:39.067Z,100961.22
2023-03-15T01:59:47.769Z,100967.41
2023-03-15T02:01:54.886Z,100974.47
2023-03-15T02:04:04.185Z,100983.19
2023-03-15T02:06:11.878Z,100978.81
2023-03-15T02:08:21.538Z,100975.31
2023-03-15T02:10:28.901Z,100971.81
2023-03-15T02:12:36.371Z,100964.81
2023-03-15T02:14:40.888Z,100962.19
2023-03-15T02:16:46.464Z,100963.09
2023-03-15T02:18:54.128Z,100962.19
2023-03-15T02:21:07.292Z,100961.31
2023-03-15T02:23:14.430Z,100959.56
2023-03-15T02:25:24.025Z,100950.94
2023-03-15T02:27:32.106Z,100950.09
2023-03-15T02:29:35.794Z,100947.56
2023-03-15T02:31:39.761Z,100946.75
2023-03-15T02:33:46.205Z,100942.44
2023-03-15T02:35:51.477Z,100942.44
2023-03-15T02:37:55.294Z,100932.91
2023-03-15T02:39:59.133Z,100927.75
2023-03-15T02:42:03.539Z,100926.09
2023-03-15T02:44:13.619Z,100927.88
2023-03-15T02:46:19.304Z,100928.78
2023-03-15T02:48:23.633Z,100921.78
2023-03-15T02:50:27.306Z,100920.03
2023-03-15T02:52:31.229Z,100909.59
2023-03-15T02:54:35.387Z,100906.97
2023-03-15T02:56:38.976Z,100903.38
2023-03-15T02:58:45.919Z,100902.34
2023-03-15T03:00:52.657Z,100892.66
2023-03-15T03:02:56.600Z,100893.44
2023-03-15T03:05:00.314Z,100885.53
2023-03-15T03:07:03.862Z,100888.06
2023-03-15T03:09:19.420Z,100893.31
2023-03-15T03:11:23.121Z,100891.50
2023-03-15T03:13:27.755Z,100881.88
2023-03-15T03:15:31.491Z,100888.78
2023-03-15T03:17:38.789Z,100893.13
2023-03-15T03:19:42.895Z,100884.50
2023-03-15T03:21:47.568Z,100884.44
2023-03-15T03:23:51.213Z,100880.06
2023-03-15T03:25:55.248Z,100874.06
2023-03-15T03:27:59.968Z,100871.56
2023-03-15T03:30:05.517Z,100869.06
2023-03-15T03:32:10.431Z,100862.16
2023-03-15T03:34:16.531Z,100860.47
2023-03-15T03:36:19.994Z,100853.56
2023-03-15T03:38:23.955Z,100851.84
2023-03-15T03:40:32.363Z,100852.69
2023-03-15T03:42:36.323Z,100852.59
2023-03-15T03:44:40.913Z,100851.66
2023-03-15T03:46:44.870Z,100849.84
2023-03-15T03:48:50.045Z,100855.88
2023-03-15T03:50:55.178Z,100858.47
2023-03-15T03:52:58.606Z,100849.72
2023-03-15T03:55:07.942Z,100851.44
2023-03-15T03:57:12.240Z,100851.53
2023-03-15T03:59:16.976Z,100849.88
2023-03-15T04:01:30.867Z,100838.66
2023-03-15T04:03:34.717Z,100837.88
2023-03-15T04:05:43.243Z,100840.53
2023-03-15T04:07:53.262Z,100834.47
2023-03-15T04:09:56.773Z,100847.53
2023-03-15T04:12:00.378Z,100840.53
2023-03-15T04:14:04.172Z,100845.69
2023-03-15T04:16:08.903Z,100843.03
2023-03-15T04:18:27.381Z,100842.16
2023-03-15T04:20:34.759Z,100843.91
2023-03-15T04:22:39.818Z,100845.69
2023-03-15T04:24:57.008Z,100849.00
2023-03-15T04:27:20.746Z,100848.03
2023-03-15T04:30:05.814Z,100848.88
2023-03-15T04:32:44.751Z,100834.16
2023-03-15T04:35:04.723Z,100834.28
2023-03-15T04:37:20.910Z,100831.81
2023-03-15T04:39:33.724Z,100842.16
2023-03-15T04:42:00.662Z,100843.88
2023-03-15T04:44:27.952Z,100848.16
2023-03-15T04:46:44.991Z,100848.03
2023-03-15T04:49:20.400Z,100853.03
2023-03-15T04:51:26.556Z,100848.66
2023-03-15T04:53:40.253Z,100846.97
2023-03-15T04:56:04.824Z,100838.31
2023-03-15T04:58:32.564Z,100841.84
2023-03-15T05:01:08.334Z,100841.00
2023-03-15T05:03:41.069Z,100841.75
2023-03-15T05:06:08.263Z,100837.28
2023-03-15T05:08:32.051Z,100832.84
2023-03-15T05:10:54.512Z,100835.53
2023-03-15T05:13:24.012Z,100839.00
2023-03-15T05:15:58.220Z,100831.97
2023-03-15T05:18:14.356Z,100829.25
2023-03-15T05:20:36.113Z,100830.03
2023-03-15T05:22:56.297Z,100833.41
2023-03-15T05:25:16.927Z,100828.13
2023-03-15T05:27:39.353Z,100827.19
2023-03-15T05:30:10.435Z,100825.38
2023-03-15T05:32:26.711Z,100828.69
2023-03-15T05:34:50.275Z,100824.00
2023-03-15T05:37:19.875Z,100821.09
2023-03-15T05:39:24.215Z,100828.72
2023-03-15T05:41:48.954Z,100821.56
2023-03-15T05:44:06.551Z,100810.88
2023-03-15T05:46:29.721Z,100809.81
2023-03-15T05:48:48.370Z,100807.09
2023-03-15T05:51:04.866Z,100795.63
2023-03-15T05:53:22.674Z,100803.28
2023-03-15T05:55:46.113Z,100807.56
2023-03-15T05:58:07.858Z,100801.38
2023-03-15T06:00:37.852Z,100803.91
2023-03-15T06:02:50.525Z,100799.50
2023-03-15T06:05:14.470Z,100806.34
2023-03-15T06:07:17.841Z,100801.00
2023-03-15T06:09:22.033Z,100796.59
2023-03-15T06:11:25.539Z,100793.06
2023-03-15T06:13:29.371Z,100789.53
2023-03-15T06:15:33.417Z,100777.22
2023-03-15T06:17:37.551Z,100777.13
2023-03-15T06:19:40.832Z,100771.78
2023-03-15T06:21:45.843Z,100779.56
2023-03-15T06:23:57.817Z,100779.34
2023-03-15T06:26:01.070Z,100771.38
2023-03-15T06:28:06.241Z,100771.38
2023-03-15T06:30:10.837Z,100767.03
2023-03-15T06:32:14.265Z,100774.13
2023-03-15T06:34:18.994Z,100772.31
2023-03-15T06:36:23.402Z,100767.13
2023-03-15T06:38:28.012Z,100763.84
2023-03-15T06:40:31.347Z,100769.03
2023-03-15T06:42:35.035Z,100769.84
2023-03-15T06:44:38.774Z,100758.47
2023-03-15T06:46:44.455Z,100767.91
2023-03-15T06:48:48.538Z,100767.81
2023-03-15T06:50:52.182Z,100765.13
2023-03-15T06:52:55.505Z,100762.34
2023-03-15T06:55:00.287Z,100763.88
2023-03-15T06:57:04.756Z,100755.03
2023-03-15T06:59:08.113Z,100754.06
2023-03-15T07:01:13.537Z,100750.44
2023-03-15T07:03:16.808Z,100745.84
2023-03-15T07:05:20.090Z,100736.97
2023-03-15T07:07:23.379Z,100735.13
2023-03-15T07:09:26.742Z,100728.81
2023-03-15T07:11:31.383Z,100733.03
2023-03-15T07:13:34.667Z,100730.28
2023-03-15T07:15:38.182Z,100720.50
2023-03-15T07:17:41.986Z,100724.72
2023-03-15T07:19:55.753Z,100718.53
2023-03-15T07:21:59.709Z,100707.09
2023-03-15T07:24:03.202Z,100701.72
2023-03-15T07:26:06.614Z,100699.88
2023-03-15T07:28:11.289Z,100693.69
2023-03-15T07:30:15.357Z,100703.19
2023-03-15T07:32:19.104Z,100699.63
2023-03-15T07:34:22.334Z,100702.16
2023-03-15T07:36:25.698Z,100692.59
2023-03-15T07:38:30.184Z,100701.28
2023-03-15T07:40:33.932Z,100696.78
2023-03-15T07:42:38.023Z,100705.41
2023-03-15T07:44:42.948Z,100709.69
2023-03-15T07:46:47.346Z,100709.50
2023-03-15T07:48:51.185Z,100707.75
2023-03-15T07:50:54.733Z,100709.56
2023-03-15T07:52:58.460Z,100700.81
2023-03-15T07:55:02.004Z,100701.72
2023-03-15T07:57:06.145Z,100702.69
2023-03-15T07:59:10.137Z,100700.94
2023-03-15T08:01:15.173Z,100702.63
2023-03-15T08:03:19.300Z,100703.56
2023-03-15T08:05:25.079Z,100707.84
2023-03-15T08:07:29.912Z,100701.72
2023-03-15T08:09:34.988Z,100697.28
2023-03-15T08:11:39.129Z,100697.16
2023-03-15T08:13:42.625Z,100702.41
2023-03-15T08:15:47.917Z,100704.13
2023-03-15T08:17:53.027Z,100702.41
2023-03-15T08:19:56.200Z,100693.69
2023-03-15T08:22:00.356Z,100696.34
2023-03-15T08:24:04.173Z,100701.66
2023-03-15T08:26:08.303Z,100697.38
2023-03-15T08:28:12.098Z,100699.22
2023-03-15T08:30:17.418Z,100694.88
2023-03-15T08:32:21.830Z,100692.25
2023-03-15T08:34:27.222Z,100692.38
2023-03-15T08:36:32.792Z,100693.28
2023-03-15T08:38:36.769Z,100688.84
2023-03-15T08:40:40.930Z,100687.00
2023-03-15T08:42:44.427Z,100686.00
2023-03-15T08:44:48.155Z,100688.44
2023-03-15T08:46:51.732Z,100689.97
2023-03-15T08:48:56.972Z,100686.38
2023-03-15T08:51:05.373Z,100684.53
2023-03-15T08:53:10.760Z,100674.97
2023-03-15T08:55:15.022Z,100668.88
2023-03-15T08:57:19.393Z,100659.16
2023-03-15T08:59:31.966Z,100672.19
2023-03-15T09:01:36.220Z,100666.81
2023-03-15T09:03:40.187Z,100665.00
2023-03-15T09:05:43.755Z,100662.25
2023-03-15T09:07:49.194Z,100663.03
2023-03-15T09:09:54.607Z,100662.94
2023-03-15T09:11:58.219Z,100661.16
2023-03-15T09:14:01.747Z,100659.28
2023-03-15T09:16:05.675Z,100658.38
2023-03-15T09:18:09.489Z,100666.19
2023-03-15T09:20:17.081Z,100648.56
2023-03-15T09:22:34.879Z,100644.97
2023-03-15T09:24:43.102Z,100645.88
2023-03-15T09:26:46.821Z,100641.56
2023-03-15T09:28:50.382Z,100638.03
2023-03-15T09:30:54.263Z,100647.66
2023-03-15T09:32:57.969Z,100639.00
2023-03-15T09:35:01.532Z,100637.28
2023-03-15T09:37:05.917Z,100634.66
2023-03-15T09:39:09.944Z,100640.78
2023-03-15T09:41:20.363Z,100635.41
2023-03-15T09:44:20.672Z,100628.44
2023-03-15T09:46:32.487Z,100625.09
2023-03-15T09:48:40.399Z,100620.72
2023-03-15T09:50:47.860Z,100613.81
2023-03-15T09:52:55.891Z,100606.84
2023-03-15T09:55:02.428Z,100600.00
2023-03-15T09:57:16.497Z,100599.94
2023-03-15T09:59:23.222Z,100589.38
2023-03-15T10:01:33.172Z,100589.38
2023-03-15T10:03:45.413Z,100585.84
2023-03-15T10:05:53.932Z,100585.84
2023-03-15T10:07:57.600Z,100578.00
2023-03-15T10:10:01.788Z,100576.25
2023-03-15T10:12:11.890Z,100570.09
2023-03-15T10:14:28.065Z,100567.41
2023-03-15T10:16:41.168Z,100569.97
2023-03-15T10:18:56.170Z,100563.75
2023-03-15T10:21:07.668Z,100556.72
2023-03-15T10:23:18.256Z,100557.63
2023-03-15T10:25:26.386Z,100552.31
2023-03-15T10:27:36.873Z,100540.09
2023-03-15T10:29:40.636Z,100538.22
2023-03-15T10:31:47.944Z,100532.97
2023-03-15T10:33:52.704Z,100542.38
2023-03-15T10:36:09.753Z,100526.44
2023-03-15T10:38:18.143Z,100526.22
2023-03-15T10:40:43.823Z,100513.03
2023-03-15T10:42:49.167Z,100514.50
2023-03-15T10:44:52.781Z,100519.59
2023-03-15T10:47:16.010Z,100524.72
2023-03-15T10:49:35.698Z,100508.72
2023-03-15T10:51:43.570Z,100501.50
2023-03-15T10:53:56.403Z,100508.16
2023-03-15T10:56:02.158Z,100494.69
2023-03-15T10:58:23.373Z,100490.00
2023-03-15T11:00:31.357Z,100474.91
2023-03-15T11:02:35.086Z,100472.00
2023-03-15T11:04:42.785Z,100485.63
2023-03-15T11:06:49.007Z,100457.34
2023-03-15T11:08:52.682Z,100463.25
2023-03-15T11:11:01.690Z,100462.25
2023-03-15T11:13:15.813Z,100469.97
2023-03-15T11:15:20.528Z,100456.75
2023-03-15T11:17:26.210Z,100454.09
2023-03-15T11:19:33.322Z,100445.34
2023-03-15T11:21:38.761Z,100447.84
2023-03-15T11:23:45.468Z,100440.88
2023-03-15T11:25:49.298Z,100436.47
2023-03-15T11:27:53.896Z,100432.09
2023-03-15T11:30:04.515Z,100437.25
2023-03-15T11:32:15.774Z,100428.31
2023-03-15T11:34:26.674Z,100423.81
2023-03-15T11:36:36.095Z,100421.09
2023-03-15T11:38:46.368Z,100412.13
2023-03-15T11:40:56.852Z,100415.41
2023-03-15T11:43:05.013Z,100403.06
2023-03-15T11:45:17.980Z,100396.84
2023-03-15T11:47:29.766Z,100394.84
2023-03-15T11:49:40.765Z,100393.00
2023-03-15T11:51:44.569Z,100392.75
2023-03-15T11:53:52.011Z,100386.50
2023-03-15T11:55:56.029Z,100368.72
2023-03-15T11:58:29.921Z,100367.31
2023-03-15T12:00:55.226Z,100369.47
2023-03-15T12:03:02.101Z,100364.91
2023-03-15T12:05:17.880Z,100367.38
2023-03-15T12:08:00.095Z,100352.22
2023-03-15T12:10:36.089Z,100337.09
2023-03-15T12:12:41.733Z,100330.00
2023-03-15T12:14:46.852Z,100333.28
2023-03-15T12:16:51.537Z,100331.34
2023-03-15T12:18:59.268Z,100329.50
2023-03-15T12:21:18.356Z,100322.38
2023-03-15T12:23:33.887Z,100327.38
2023-03-15T12:25:54.097Z,100321.03
2023-03-15T12:28:01.134Z,100317.34
2023-03-15T12:30:06.781Z,100305.78
2023-03-15T12:32:15.661Z,100298.66
2023-03-15T12:34:32.004Z,100291.38
2023-03-15T12:36:39.420Z,100285.84
2023-03-15T12:39:00.483Z,100286.53
2023-03-15T12:41:09.638Z,100270.56
2023-03-15T12:43:14.268Z,100266.03
2023-03-15T12:45:43.704Z,100259.66
2023-03-15T12:48:13.036Z,100256.69
2023-03-15T12:50:52.665Z,100252.69
2023-03-15T12:53:02.212Z,100249.03
2023-03-15T12:55:13.452Z,100242.63
2023-03-15T12:57:22.543Z,100219.53
2023-03-15T12:59:50.430Z,100232.41
2023-03-15T13:01:54.260Z,100224.25
2023-03-15T13:03:59.661Z,100216.19
2023-03-15T13:06:14.461Z,100209.69
2023-03-15T13:08:22.957Z,100209.34
2023-03-15T13:10:38.830Z,100208.97
2023-03-15T13:12:47.082Z,100199.84
2023-03-15T13:14:58.600Z,100196.84
2023-03-15T13:17:09.237Z,100206.94
2023-03-15T13:19:23.744Z,100191.59
2023-03-15T13:21:35.192Z,100185.00
2023-03-15T13:23:39.584Z,100190.84
2023-03-15T13:25:52.994Z,100187.06
2023-03-15T13:28:00.146Z,100177.28
2023-03-15T13:30:11.585Z,100178.97
2023-03-15T13:32:17.913Z,100174.44
2023-03-15T13:34:24.343Z,100168.78
2023-03-15T13:36:40.071Z,100162.47
2023-03-15T13:38:45.709Z,100163.13
2023-03-15T13:40:49.210Z,100152.19
2023-03-15T13:42:52.841Z,100139.75
2023-03-15T13:45:23.891Z,100129.00
2023-03-15T13:47:28.233Z,100124.47
2023-03-15T13:49:33.301Z,100127.22
2023-03-15T13:51:39.296Z,100118.38
2023-03-15T13:53:49.788Z,100106.78
2023-03-15T13:55:55.602Z,100104.03
2023-03-15T13:58:02.193Z,100091.78
2023-03-15T14:00:11.789Z,100093.47
2023-03-15T14:02:19.364Z,100086.31
2023-03-15T14:04:26.565Z,100085.25
2023-03-15T14:06:31.856Z,100070.91
2023-03-15T14:08:39.476Z,100071.88
2023-03-15T14:10:43.458Z,100068.19
2023-03-15T14:12:47.472Z,100058.28
2023-03-15T14:14:53.451Z,100066.09
2023-03-15T14:17:05.885Z,100057.13
2023-03-15T14:19:17.183Z,100052.59
2023-03-15T14:21:32.275Z,100050.69
2023-03-15T14:23:42.918Z,100047.34
2023-03-15T14:25:53.437Z,100033.16
2023-03-15T14:28:01.183Z,100035.81
2023-03-15T14:30:06.714Z,100031.41
2023-03-15T14:32:25.268Z,100028.53
2023-03-15T14:34:34.814Z,100025.91
2023-03-15T14:36:43.881Z,100016.28
2023-03-15T14:38:53.698Z,100011.88
2023-03-15T14:41:12.637Z,100001.31
2023-03-15T14:43:16.470Z,100003.75
2023-03-15T14:45:22.401Z,100001.81
2023-03-15T14:47:26.208Z,99999.84
2023-03-15T14:49:30.726Z,99985.59
2023-03-15T14:51:34.294Z,99990.44
2023-03-15T14:53:39.190Z,99985.09
2023-03-15T14:55:44.351Z,99983.16
2023-03-15T14:57:47.985Z,99982.22
2023-03-15T14:59:51.907Z,99975.13
2023-03-15T15:01:58.308Z,99969.84
2023-03-15T15:04:04.047Z,99948.75
2023-03-15T15:06:09.296Z,99958.34
2023-03-15T15:08:14.892Z,99959.31
2023-03-15T15:10:18.811Z,99959.31
2023-03-15T15:12:24.201Z,99954.78
2023-03-15T15:14:27.894Z,99947.69
2023-03-15T15:16:31.641Z,99944.94
2023-03-15T15:18:37.233Z,99942.41
2023-03-15T15:20:43.837Z,99937.97
2023-03-15T15:22:48.495Z,99944.94
2023-03-15T15:24:52.021Z,99932.69
2023-03-15T15:26:55.865Z,99929.22
2023-03-15T15:29:01.949Z,99917.59
2023-03-15T15:31:07.302Z,99927.31
2023-03-15T15:33:11.780Z,99919.47
2023-03-15T15:35:17.901Z,99920.47
2023-03-15T15:37:21.743Z,99906.50
2023-03-15T15:39:29.852Z,99901.22
2023-03-15T15:41:33.458Z,99894.25
2023-03-15T15:43:37.322Z,99903.16
2023-03-15T15:45:42.617Z,99898.06
2023-03-15T15:47:46.837Z,99893.75
2023-03-15T15:49:50.671Z,99884.47
2023-03-15T15:51:54.814Z,99883.84
2023-03-15T15:54:00.191Z,99883.28
2023-03-15T15:56:04.477Z,99886.16
2023-03-15T15:58:10.272Z,99865.47
2023-03-15T16:00:19.263Z,99874.66
2023-03-15T16:02:24.936Z,99860.91
2023-03-15T16:04:28.938Z,99855.97
2023-03-15T16:06:33.208Z,99845.75
2023-03-15T16:08:41.881Z,99842.34
2023-03-15T16:10:46.002Z,99843.41
2023-03-15T16:12:51.027Z,99842.56
2023-03-15T16:14:54.336Z,99826.00
2023-03-15T16:16:57.872Z,99820.00
2023-03-15T16:19:03.473Z,99822.53
2023-03-15T16:21:07.417Z,99827.81
2023-03-15T16:23:19.726Z,99823.47
2023-03-15T16:25:27.586Z,99818.94
2023-03-15T16:27:31.844Z,99825.88
2023-03-15T16:29:39.230Z,99823.25
2023-03-15T16:31:42.925Z,99804.78
2023-03-15T16:33:46.609Z,99804.72
2023-03-15T16:35:53.601Z,99806.50
2023-03-15T16:37:58.793Z,99794.25
2023-03-15T16:40:05.169Z,99794.25
2023-03-15T16:42:12.339Z,99793.41
2023-03-15T16:44:18.210Z,99799.53
2023-03-15T16:46:22.134Z,99789.94
2023-03-15T16:48:26.322Z,99782.97
2023-03-15T16:50:30.285Z,99780.34
2023-03-15T16:52:35.239Z,99783.91
2023-03-15T16:54:41.569Z,99772.53
2023-03-15T16:56:45.896Z,99778.41
2023-03-15T16:58:52.913Z,99764.28
2023-03-15T17:00:56.711Z,99763.34
2023-03-15T17:03:02.159Z,99752.56
2023-03-15T17:05:07.100Z,99759.53
2023-03-15T17:07:14.538Z,99756.16
2023-03-15T17:09:22.925Z,99756.69
2023-03-15T17:11:30.044Z,99747.59
2023-03-15T17:13:34.721Z,99734.09
2023-03-15T17:15:39.252Z,99744.31
2023-03-15T17:17:43.642Z,99739.78
2023-03-15T17:19:48.398Z,99730.19
2023-03-15T17:22:12.177Z,99732.94
2023-03-15T17:24:19.416Z,99725.97
2023-03-15T17:26:35.286Z,99727.03
2023-03-15T17:28:38.849Z,99712.25
2023-03-15T17:30:42.455Z,99709.50
2023-03-15T17:32:46.483Z,99698.00
2023-03-15T17:34:50.308Z,99698.75
2023-03-15T17:36:55.598Z,99699.47
2023-03-15T17:38:59.570Z,99686.06
2023-03-15T17:41:03.996Z,99681.81
2023-03-15T17:43:13.584Z,99690.00
2023-03-15T17:45:21.187Z,99692.41
2023-03-15T17:47:24.869Z,99689.78
2023-03-15T17:49:28.806Z,99680.91
2023-03-15T17:51:35.030Z,99673.72
2023-03-15T17:53:38.807Z,99670.13
2023-03-15T17:55:42.998Z,99667.88
2023-03-15T17:57:54.629Z,99666.94
2023-03-15T18:00:00.759Z,99668.44
2023-03-15T18:02:04.481Z,99662.91
2023-03-15T18:04:12.270Z,99659.31
2023-03-15T18:06:16.420Z,99667.97
2023-03-15T18:08:22.510Z,99656.56
2023-03-15T18:10:28.614Z,99664.84
2023-03-15T18:12:33.131Z,99655.56
2023-03-15T18:14:38.284Z,99645.22
2023-03-15T18:16:43.889Z,99644.63
2023-03-15T18:18:47.744Z,99640.19
2023-03-15T18:20:51.400Z,99643.75
2023-03-15T18:22:55.501Z,99638.72
2023-03-15T18:24:59.372Z,99638.97
2023-03-15T18:27:03.059Z,99639.06
2023-03-15T18:29:06.856Z,99637.28
2023-03-15T18:31:14.512Z,99635.56
2023-03-15T18:33:19.791Z,99628.84
2023-03-15T18:35:24.567Z,99622.09
2023-03-15T18:37:28.983Z,99629.19
2023-03-15T18:39:33.429Z,99628.38
2023-03-15T18:41:37.358Z,99634.34
2023-03-15T18:43:41.437Z,99621.78
2023-03-15T18:45:45.739Z,99624.19
2023-03-15T18:47:50.524Z,99615.31
2023-03-15T18:50:04.439Z,99622.38
2023-03-15T18:52:16.342Z,99612.91
2023-03-15T18:54:20.368Z,99604.88
2023-03-15T18:56:26.289Z,99604.75
2023-03-15T18:58:31.840Z,99608.47
2023-03-15T19:00:37.020Z,99613.00
2023-03-15T19:02:42.047Z,99611.09
2023-03-15T19:04:45.867Z,99615.09
2023-03-15T19:06:51.369Z,99625.53
2023-03-15T19:08:56.205Z,99610.63
2023-03-15T19:11:02.066Z,99620.47
2023-03-15T19:13:07.313Z,99611.72
2023-03-15T19:15:18.052Z,99614.13
2023-03-15T19:17:22.284Z,99615.72
2023-03-15T19:19:26.446Z,99607.78
2023-03-15T19:21:30.179Z,99610.44
2023-03-15T19:23:35.961Z,99613.78
2023-03-15T19:25:39.811Z,99613.78
2023-03-15T19:27:43.827Z,99600.47
2023-03-15T19:29:47.534Z,99601.09
2023-03-15T19:31:51.266Z,99605.53
2023-03-15T19:33:54.913Z,99605.41
2023-03-15T19:35:58.705Z,99597.25
2023-03-15T19:38:02.862Z,99599.91
2023-03-15T19:40:10.206Z,99598.19
2023-03-15T19:42:13.886Z,99608.06
2023-03-15T19:44:17.388Z,99597.69
2023-03-15T19:46:21.201Z,99602.78
2023-03-15T19:48:24.938Z,99590.28
2023-03-15T19:50:31.597Z,99599.16
2023-03-15T19:52:35.766Z,99599.38
2023-03-15T19:54:39.556Z,99588.59
2023-03-15T19:56:45.785Z,99588.50
2023-03-15T19:58:50.122Z,99587.44
2023-03-15T20:00:57.400Z,99576.75
2023-03-15T20:03:01.129Z,99582.41
2023-03-15T20:05:04.835Z,99578.78
2023-03-15T20:07:11.315Z,99579.16
2023-03-15T20:09:15.404Z,99573.22
2023-03-15T20:11:25.357Z,99569.25
2023-03-15T20:13:30.598Z,99566.16
2023-03-15T20:15:34.475Z,99566.59
2023-03-15T20:17:38.243Z,99561.00
2023-03-15T20:19:41.743Z,99564.34
2023-03-15T20:21:45.489Z,99554.38
2023-03-15T20:23:49.241Z,99563.00
2023-03-15T20:25:52.822Z,99555.00
2023-03-15T20:27:57.406Z,99549.44
2023-03-15T20:30:03.794Z,99560.59
2023-03-15T20:32:07.775Z,99552.59
2023-03-15T20:34:12.471Z,99552.47
2023-03-15T20:36:16.516Z,99550.50
2023-03-15T20:38:20.590Z,99543.44
2023-03-15T20:40:24.954Z,99544.28
2023-03-15T20:42:29.194Z,99550.38
2023-03-15T20:44:33.096Z,99549.44
2023-03-15T20:46:40.103Z,99548.47
2023-03-15T20:48:44.498Z,99548.34
2023-03-15T20:50:49.406Z,99547.41
2023-03-15T20:52:53.796Z,99546.53
2023-03-15T20:54:57.729Z,99552.69
2023-03-15T20:57:01.467Z,99541.16
2023-03-15T20:59:05.258Z,99530.47
2023-03-15T21:01:11.204Z,99532.13
2023-03-15T21:03:18.265Z,99527.69
2023-03-15T21:05:24.370Z,99527.69
2023-03-15T21:07:27.857Z,99517.13
2023-03-15T21:09:31.978Z,99517.94
2023-03-15T21:11:36.117Z,99513.50
2023-03-15T21:13:41.037Z,99502.94
2023-03-15T21:15:48.003Z,99509.66
2023-03-15T21:17:53.226Z,99510.50
2023-03-15T21:19:58.545Z,99502.44
2023-03-15T21:22:02.373Z,99503.16
2023-03-15T21:24:07.205Z,99503.03
2023-03-15T21:26:13.387Z,99498.69
2023-03-15T21:28:17.157Z,99503.88
2023-03-15T21:30:20.883Z,99501.09
2023-03-15T21:32:25.079Z,99499.19
2023-03-15T21:34:29.033Z,99499.19
2023-03-15T21:36:39.133Z,99493.03
2023-03-15T21:38:43.254Z,99487.75
2023-03-15T21:40:48.164Z,99485.81
2023-03-15T21:42:51.944Z,99487.50
2023-03-15T21:44:56.897Z,99484.75
2023-03-15T21:47:00.895Z,99485.44
2023-03-15T21:49:05.765Z,99473.78
2023-03-15T21:51:10.560Z,99461.28
2023-03-15T21:53:16.321Z,99454.03
2023-03-15T21:55:20.484Z,99455.34
2023-03-15T21:57:24.545Z,99458.66
2023-03-15T21:59:28.954Z,99453.81
2023-03-15T22:01:32.923Z,99449.38
2023-03-15T22:03:37.845Z,99453.00
2023-03-15T22:05:42.009Z,99452.28
2023-03-15T22:07:46.044Z,99454.91
2023-03-15T22:09:53.369Z,99451.53
2023-03-15T22:11:57.092Z,99447.72
2023-03-15T22:14:01.281Z,99444.94
2023-03-15T22:16:05.356Z,99441.28
2023-03-15T22:18:09.379Z,99438.53
2023-03-15T22:20:17.302Z,99444.06
2023-03-15T22:22:21.342Z,99447.13
2023-03-15T22:24:24.798Z,99438.72
2023-03-15T22:26:29.922Z,99440.91
2023-03-15T22:28:34.050Z,99433.34
2023-03-15T22:30:38.017Z,99430.97
2023-03-15T22:32:44.472Z,99428.31
2023-03-15T22:34:48.305Z,99435.28
2023-03-15T22:36:53.081Z,99436.00
2023-03-15T22:38:58.719Z,99440.56
2023-03-15T22:41:03.445Z,99438.91
2023-03-15T22:43:09.818Z,99445.28
2023-03-15T22:45:14.193Z,99440.81
2023-03-15T22:47:18.312Z,99431.94
2023-03-15T22:49:21.817Z,99430.84
2023-03-15T22:51:25.770Z,99426.13
2023-03-15T22:53:30.253Z,99433.69
2023-03-15T22:55:33.835Z,99420.59
2023-03-15T22:57:37.975Z,99412.66
2023-03-15T22:59:43.180Z,99413.63
2023-03-15T23:01:46.904Z,99413.03
2023-03-15T23:03:51.208Z,99421.34
2023-03-15T23:05:55.664Z,99411.25
2023-03-15T23:07:59.795Z,99415.13
2023-03-15T23:10:03.523Z,99415.38
2023-03-15T23:12:08.104Z,99422.63
2023-03-15T23:14:12.017Z,99422.63
2023-03-15T23:16:17.360Z,99413.00
2023-03-15T23:18:22.362Z,99409.41
2023-03-15T23:20:26.864Z,99406.50
2023-03-15T23:22:31.616Z,99406.25
2023-03-15T23:24:40.518Z,99399.03
2023-03-15T23:26:44.450Z,99407.78
2023-03-15T23:28:48.458Z,99397.09
2023-03-15T23:30:53.171Z,99402.09
2023-03-15T23:32:59.055Z,99402.97
2023-03-15T23:35:03.151Z,99400.19
2023-03-15T23:37:06.880Z,99394.63
2023-03-15T23:39:10.762Z,99393.53
2023-03-15T23:41:14.381Z,99381.88
2023-03-15T23:43:18.074Z,99379.94
2023-03-15T23:45:21.898Z,99374.41
2023-03-15T23:47:27.240Z,99375.94
2023-03-15T23:49:32.999Z,99375.81
2023-03-15T23:51:37.087Z,99372.19
2023-03-15T23:53:40.750Z,99366.88
2023-03-15T23:55:44.359Z,99380.03
2023-03-15T23:57:47.922Z,99370.25
2023-03-15T23:59:51.697Z,99364.69
